Time;durP1;ratioP1;P1;durP2;ratioP2;P2;SDS_P1;SDS_P2;PMS_P1;PMS_P2;Temp;Humidity;BMP_temperature;BMP_pressure;BME280_temperature;BME280_humidity;BME280_pressure;Samples;Min_cycle;Max_cycle;Signal;HPM_P1;HPM_P2
2021/10/08 03:19:43;;;;;;;2.75;2.24;;;;;;;5.15;90.99;100445.66;2339099;68;20261;-82
2021/10/08 03:23:10;;;;;;;;;;;;;;;5.08;90.87;100444.56;2336892;68;20348;-82
2021/10/08 03:26:37;;;;;;;2.70;1.86;;;;;;;5.08;90.69;100449.72;2323831;69;20035;-82
2021/10/08 03:29:44;;;;;;;3.33;2.11;;;;;;;5.05;90.41;100451.31;2331517;69;20386;-82
2021/10/08 03:32:51;;;;;;;4.53;2.21;;;;;;;5.01;90.30;100446.88;2327208;66;44695;-82
2021/10/08 03:36:24;;;;;;;3.22;2.49;;;;;;;4.97;90.20;100442.44;2307156;69;20296;-82
2021/10/08 03:39:48;;;;;;;2.33;1.83;;;;;;;4.95;90.33;100450.09;2297249;70;20284;-82
2021/10/08 03:43:13;;;;;;;4.26;2.41;;;;;;;4.93;90.31;100444.03;2305769;69;20288;-82
2021/10/08 03:46:51;;;;;;;2.41;2.14;;;;;;;4.88;90.30;100448.16;2293375;69;1011458;-82
2021/10/08 03:50:40;;;;;;;2.51;2.31;;;;;;;4.85;90.26;100448.94;2306088;69;20210;-80
2021/10/08 03:53:57;;;;;;;4.68;2.22;;;;;;;4.87;90.61;100438.69;2315725;68;20259;-80
2021/10/08 03:57:01;;;;;;;3.72;2.70;;;;;;;4.85;90.66;100437.75;2326506;69;20300;-81
2021/10/08 04:00:06;;;;;;;3.30;2.47;;;;;;;4.85;90.58;100445.47;2324858;69;20390;-82
2021/10/08 04:03:09;;;;;;;3.79;2.54;;;;;;;4.83;90.54;100444.53;2330370;68;20280;-82
2021/10/08 04:06:11;;;;;;;2.47;2.21;;;;;;;4.80;90.59;100445.28;2327813;68;20305;-82
2021/10/08 04:09:15;;;;;;;2.92;2.39;;;;;;;4.80;90.57;100447.00;2325469;69;20316;-82
2021/10/08 04:12:17;;;;;;;2.75;2.30;;;;;;;4.75;90.39;100451.97;2335935;68;20697;-82
2021/10/08 04:15:22;;;;;;;3.96;2.49;;;;;;;4.72;90.23;100451.00;2330070;68;20288;-82
2021/10/08 04:18:24;;;;;;;3.22;2.10;;;;;;;4.67;90.26;100455.09;2332245;69;20306;-82
2021/10/08 04:21:27;;;;;;;3.05;2.17;;;;;;;4.64;90.37;100457.53;2329756;69;20333;-81
2021/10/08 04:24:31;;;;;;;2.09;1.85;;;;;;;4.62;90.42;100461.75;2330984;68;20452;-82
2021/10/08 04:27:35;;;;;;;3.59;1.92;;;;;;;4.63;90.67;100463.50;2330895;69;20590;-82
2021/10/08 04:30:39;;;;;;;3.31;2.58;;;;;;;4.63;90.60;100458.38;2332101;68;20298;-82
2021/10/08 04:33:41;;;;;;;3.44;2.24;;;;;;;4.61;90.64;100455.75;2314539;69;20304;-82
2021/10/08 04:36:45;;;;;;;3.25;2.16;;;;;;;4.61;90.73;100463.47;2330994;69;20348;-82
2021/10/08 04:39:48;;;;;;;4.53;2.13;;;;;;;4.60;90.79;100461.72;2327455;69;20296;-82
2021/10/08 04:42:51;;;;;;;2.60;1.65;;;;;;;4.59;90.60;100470.25;2331669;68;20297;-82
2021/10/08 04:45:54;;;;;;;2.59;1.92;;;;;;;4.57;90.62;100465.88;2329340;69;20296;-82
2021/10/08 04:48:56;;;;;;;3.06;2.10;;;;;;;4.57;90.77;100463.31;2319433;69;20367;-82
2021/10/08 04:52:01;;;;;;;2.22;2.03;;;;;;;4.55;90.73;100452.97;2332954;69;20310;-82
2021/10/08 04:55:05;;;;;;;2.39;1.88;;;;;;;4.54;90.57;100458.94;2331668;68;20718;-82
2021/10/08 04:58:08;;;;;;;3.20;2.39;;;;;;;4.53;90.65;100462.31;2331072;69;20268;-82
2021/10/08 05:01:11;;;;;;;3.99;2.05;;;;;;;4.53;90.37;100462.31;2329853;66;102615;-82
2021/10/08 05:04:14;;;;;;;2.78;2.01;;;;;;;4.53;90.35;100457.19;2325350;69;20276;-82
2021/10/08 05:07:17;;;;;;;3.06;1.70;;;;;;;4.50;90.25;100470.81;2330330;69;20240;-82
2021/10/08 05:10:22;;;;;;;2.10;1.90;;;;;;;4.50;90.47;100457.06;2326705;69;20472;-82
2021/10/08 05:13:25;;;;;;;3.21;2.14;;;;;;;4.50;90.38;100457.06;2318543;68;20270;-82
2021/10/08 05:16:35;;;;;;;3.42;2.10;;;;;;;4.44;90.18;100459.38;2324197;67;45369;-82
2021/10/08 05:19:37;;;;;;;3.75;2.09;;;;;;;4.39;90.22;100456.66;2334937;69;20277;-82
2021/10/08 05:22:40;;;;;;;3.34;1.81;;;;;;;4.38;90.26;100459.16;2335701;69;20352;-82
2021/10/08 05:25:43;;;;;;;3.91;1.76;;;;;;;4.39;90.37;100460.91;2331178;68;20860;-82
2021/10/08 05:28:50;;;;;;;3.53;1.88;;;;;;;4.40;90.42;100460.97;2328755;69;20260;-82
2021/10/08 05:31:54;;;;;;;2.04;1.75;;;;;;;4.40;90.40;100450.69;2330217;69;20292;-81
2021/10/08 05:34:57;;;;;;;2.79;2.40;;;;;;;4.39;90.46;100458.34;2328818;68;20339;-81
2021/10/08 05:38:00;;;;;;;2.75;1.90;;;;;;;4.37;90.51;100460.88;2334765;68;20301;-82
2021/10/08 05:41:03;;;;;;;3.13;1.76;;;;;;;4.38;90.57;100456.59;2323611;69;20310;-81
2021/10/08 05:44:05;;;;;;;2.20;1.90;;;;;;;4.34;90.50;100454.75;2329170;69;20636;-82
2021/10/08 05:47:08;;;;;;;2.10;1.90;;;;;;;4.30;90.51;100460.56;2328838;66;24495;-81
2021/10/08 05:50:10;;;;;;;2.46;1.64;;;;;;;4.30;90.72;100464.00;2329070;69;20411;-80
2021/10/08 05:53:14;;;;;;;2.41;2.13;;;;;;;4.31;90.77;100470.03;2331532;68;20288;-81
2021/10/08 05:56:16;;;;;;;4.40;2.11;;;;;;;4.33;90.92;100465.84;2334505;69;20249;-80
2021/10/08 05:59:19;;;;;;;4.43;1.98;;;;;;;4.35;90.83;100467.66;2337503;68;20252;-81
2021/10/08 06:02:21;;;;;;;4.60;1.95;;;;;;;4.39;90.76;100478.91;2332703;66;61182;-80
2021/10/08 06:05:25;;;;;;;3.71;2.40;;;;;;;4.40;90.75;100485.81;2333535;68;20301;-81
2021/10/08 06:12:33;;;;;;;2.03;1.76;;;;;;;4.44;90.73;100495.38;2330713;69;20265;-81
2021/10/08 06:15:35;;;;;;;2.79;1.90;;;;;;;4.50;90.76;100487.94;2333834;69;20718;-81
2021/10/08 06:18:38;;;;;;;3.30;2.05;;;;;;;4.54;90.83;100487.22;2332785;69;21076;-81
2021/10/08 06:21:40;;;;;;;2.63;2.42;;;;;;;4.62;91.09;100482.34;2335760;69;20253;-81
2021/10/08 06:24:45;;;;;;;4.81;2.06;;;;;;;4.69;91.24;100486.91;2321820;68;20252;-80
2021/10/08 06:27:52;;;;;;;2.76;2.26;;;;;;;4.78;91.24;100498.41;2332893;68;20339;-81
2021/10/08 06:30:55;;;;;;;2.33;2.11;;;;;;;4.86;91.18;100493.53;2334289;66;28254;-81
2021/10/08 06:33:58;;;;;;;2.60;2.20;;;;;;;4.96;91.06;100497.31;2331123;69;20311;-80
2021/10/08 06:37:00;;;;;;;3.16;1.98;;;;;;;5.04;91.14;100496.78;2323996;69;20296;-80
2021/10/08 06:40:04;;;;;;;1.89;1.77;;;;;;;5.14;91.10;100497.97;2331808;69;20244;-80
2021/10/08 06:43:07;;;;;;;2.70;2.01;;;;;;;5.25;91.18;100499.22;2325403;69;20746;-80
2021/10/08 06:46:10;;;;;;;2.17;1.86;;;;;;;5.35;91.16;100493.53;2329084;68;20296;-81
2021/10/08 06:49:12;;;;;;;2.36;1.88;;;;;;;5.49;91.04;100498.28;2326682;69;20374;-81
2021/10/08 06:52:15;;;;;;;3.19;2.03;;;;;;;5.60;91.00;100497.84;2334273;68;20944;-81
2021/10/08 06:55:18;;;;;;;4.22;2.15;;;;;;;5.73;90.95;100492.25;2326535;69;20369;-81
2021/10/08 06:58:20;;;;;;;3.15;2.26;;;;;;;5.90;90.96;100500.56;2327868;69;20419;-81
2021/10/08 07:01:23;;;;;;;2.78;2.13;;;;;;;6.11;90.79;100507.25;2330861;66;30359;-81
2021/10/08 07:04:26;;;;;;;4.13;2.09;;;;;;;6.34;90.72;100501.09;2337242;68;20319;-81
2021/10/08 07:07:29;;;;;;;2.28;2.05;;;;;;;6.67;90.32;100508.97;2331265;69;20240;-81
2021/10/08 07:10:37;;;;;;;2.35;2.10;;;;;;;7.05;89.46;100506.59;2336562;69;20335;-81
2021/10/08 07:14:12;;;;;;;4.41;2.17;;;;;;;7.34;88.64;100504.78;2340429;68;20294;-82
2021/10/08 07:17:55;;;;;;;3.14;2.10;;;;;;;7.71;87.77;100504.00;2316620;68;1904190;-81
2021/10/08 07:21:12;;;;;;;3.59;2.67;;;;;;;8.08;87.15;100503.22;2337203;68;20203;-81
2021/10/08 07:24:27;;;;;;;5.05;2.35;;;;;;;8.42;86.37;100497.97;2344368;68;20264;-82
2021/10/08 07:28:01;;;;;;;9.19;2.63;;;;;;;8.74;85.31;100495.19;2341982;68;20270;-83
2021/10/08 07:44:16;;;;;;;5.13;2.44;;;;;;;10.50;80.45;100502.59;2348552;69;20116;-83
2021/10/08 07:47:20;;;;;;;5.40;3.39;;;;;;;10.92;79.54;100506.59;2328050;66;39626;-82
2021/10/08 07:50:25;;;;;;;9.11;4.59;;;;;;;11.24;78.45;100512.16;2309902;69;20159;-82
2021/10/08 07:53:29;;;;;;;8.54;5.09;;;;;;;11.60;77.94;100516.88;2322815;69;20122;-82
2021/10/08 07:56:59;;;;;;;7.65;4.16;;;;;;;11.92;76.86;100513.72;2313869;69;20145;-83
2021/10/08 08:01:05;;;;;;;11.32;4.26;;;;;;;12.22;75.67;100507.88;2302812;69;20205;-83
2021/10/08 11:06:10;;;;;;;1.75;1.60;;;;;;;18.61;54.81;100433.88;2342819;68;20111;-80
2021/10/08 11:12:35;;;;;;;3.16;1.56;;;;;;;18.55;54.69;100433.16;2342744;68;20181;-81
2021/10/08 11:15:37;;;;;;;1.91;1.17;;;;;;;18.52;54.57;100423.56;2343720;68;20171;-81
2021/10/08 11:22:07;;;;;;;2.76;1.30;;;;;;;18.64;54.90;100431.22;2326789;68;20157;-82
2021/10/08 11:25:12;;;;;;;1.77;1.16;;;;;;;18.70;55.02;100410.06;2340299;69;20152;-80
2021/10/08 11:28:16;;;;;;;1.04;1.00;;;;;;;18.68;54.50;100424.16;2344952;68;20103;-81
2021/10/08 11:31:20;;;;;;;2.28;1.40;;;;;;;18.83;55.12;100410.63;2329398;67;34096;-79
2021/10/08 11:34:23;;;;;;;1.88;1.09;;;;;;;18.98;54.29;100412.06;2331283;68;20132;-80
2021/10/08 11:37:29;;;;;;;1.81;1.10;;;;;;;19.02;53.33;100406.69;2336958;69;20156;-80
2021/10/08 11:40:40;;;;;;;1.49;1.02;;;;;;;19.06;53.56;100401.38;2329075;69;20169;-81
2021/10/08 11:43:43;;;;;;;1.83;1.06;;;;;;;19.07;53.68;100398.72;2334074;69;20169;-80
2021/10/08 11:47:24;;;;;;;1.42;1.10;;;;;;;19.17;54.16;100397.59;2322487;66;25405;-81
2021/10/08 11:53:51;;;;;;;1.42;0.90;;;;;;;19.39;53.10;100397.06;2329654;69;20241;-81
2021/10/08 11:57:02;;;;;;;3.46;1.10;;;;;;;19.33;52.33;100398.09;2331410;69;20171;-80
2021/10/08 12:00:06;;;;;;;1.86;0.80;;;;;;;19.32;52.45;100397.22;2332719;68;20551;-81
2021/10/08 12:03:13;;;;;;;0.80;0.80;;;;;;;19.23;52.81;100384.28;2334706;67;30930;-81
2021/10/08 12:06:34;;;;;;;1.56;0.70;;;;;;;19.18;52.86;100382.66;2331857;69;20271;-81
2021/10/08 12:09:38;;;;;;;2.46;1.77;;;;;;;19.14;53.99;100387.13;2331252;68;20292;-81
2021/10/08 12:12:57;;;;;;;1.67;1.27;;;;;;;19.08;52.88;100391.69;2334598;69;20155;-81
2021/10/08 12:16:01;;;;;;;3.69;1.30;;;;;;;18.95;52.08;100373.53;2330545;69;20518;-81
2021/10/08 12:22:26;;;;;;;1.60;1.17;;;;;;;18.94;52.89;100371.81;2330879;68;20155;-80
2021/10/08 12:25:29;;;;;;;6.70;3.59;;;;;;;18.80;52.66;100373.00;2341217;68;20215;-80
2021/10/08 12:28:32;;;;;;;8.90;3.91;;;;;;;18.69;52.67;100366.25;2338606;68;20142;-81
2021/10/08 12:31:44;;;;;;;4.89;2.42;;;;;;;18.56;52.92;100366.50;2331933;66;26197;-81
2021/10/08 12:34:50;;;;;;;3.60;1.73;;;;;;;18.40;53.67;100358.06;2352080;68;20154;-81
2021/10/08 13:26:13;;;;;;;2.13;1.09;;;;;;;18.61;52.24;100340.94;2332268;68;20714;-81
2021/10/08 13:29:38;;;;;;;2.99;1.25;;;;;;;18.60;52.26;100340.09;2333587;68;20266;-80
2021/10/08 13:36:36;;;;;;;2.50;1.75;;;;;;;18.65;51.95;100345.25;2335677;68;20288;-81
2021/10/08 13:40:56;;;;;;;2.81;1.94;;;;;;;18.66;51.79;100333.84;2333727;68;20187;-81
2021/10/08 13:44:38;;;;;;;3.54;2.11;;;;;;;18.75;51.90;100338.03;2334260;68;20151;-82
2021/10/08 13:57:06;;;;;;;3.51;1.84;;;;;;;18.82;51.55;100323.84;2319376;69;20204;-80
2021/10/08 14:07:46;;;;;;;;;;;;;;;;;;;;;
2021/10/08 14:11:15;;;;;;;1.88;1.77;;;;;;;18.94;52.10;100318.28;2330592;68;20952;-79
2021/10/08 14:14:34;;;;;;;1.86;1.76;;;;;;;18.99;52.08;100319.91;2328806;68;20163;-79
2021/10/08 14:17:57;;;;;;;1.98;1.88;;;;;;;18.84;51.60;100309.75;2326352;68;20166;-79
2021/10/08 14:24:35;;;;;;;3.08;2.30;;;;;;;18.48;52.47;100321.94;2329379;68;20233;-80
2021/10/08 14:28:01;;;;;;;4.80;2.46;;;;;;;18.42;52.70;100308.91;2331434;68;20171;-80
2021/10/08 14:31:51;;;;;;;5.74;2.35;;;;;;;18.32;52.94;100308.28;2316229;69;20160;-80
2021/10/08 14:35:19;;;;;;;3.00;2.79;;;;;;;18.12;52.97;100311.28;2314770;69;20180;-80
2021/10/08 14:56:16;;;;;;;4.72;3.61;;;;;;;18.20;54.17;100290.13;2328042;69;20199;-80
2021/10/08 15:02:44;;;;;;;5.41;3.59;;;;;;;18.15;54.52;100296.38;2316299;68;1252223;-79
2021/10/08 15:06:29;;;;;;;10.04;3.71;;;;;;;18.04;54.38;100291.31;2328176;68;20264;-80
2021/10/08 15:10:09;;;;;;;3.92;3.63;;;;;;;17.98;54.15;100301.97;2333680;68;20207;-80
2021/10/08 15:14:02;;;;;;;6.16;3.82;;;;;;;17.90;53.79;100296.00;2339221;68;20259;-80
2021/10/08 15:17:22;;;;;;;6.47;3.70;;;;;;;17.89;53.84;100286.38;2315365;69;20164;-79
2021/10/08 15:23:46;;;;;;;3.44;3.13;;;;;;;18.09;54.75;100285.06;2329624;68;20220;-82
2021/10/08 15:27:05;;;;;;;3.81;3.51;;;;;;;18.14;54.01;100286.75;2326681;68;20198;-78
2021/10/08 15:30:26;;;;;;;4.15;3.39;;;;;;;18.05;53.85;100286.03;2327450;68;20162;-79
2021/10/08 15:33:43;;;;;;;3.26;3.00;;;;;;;17.91;54.02;100288.06;2328198;68;20233;-78
2021/10/08 15:37:10;;;;;;;3.59;3.28;;;;;;;17.72;54.34;100284.06;2327931;68;20150;-78
2021/10/08 15:40:32;;;;;;;4.19;3.65;;;;;;;17.50;55.39;100278.34;2327573;68;20231;-78
2021/10/08 15:43:48;;;;;;;3.80;3.49;;;;;;;17.37;55.87;100284.69;2328624;68;20171;-78
2021/10/08 15:47:23;;;;;;;;;;;;;;;17.19;56.42;100289.38;2326339;65;211950;-81
2021/10/08 15:50:59;;;;;;;3.79;3.49;;;;;;;17.06;56.17;100287.88;2306587;69;20225;-80
2021/10/08 15:55:01;;;;;;;3.89;3.54;;;;;;;16.89;56.53;100301.25;2306198;69;20188;-80
2021/10/08 15:58:26;;;;;;;3.88;3.53;;;;;;;16.90;57.18;100297.72;2307995;69;20178;-79
2021/10/08 16:01:47;;;;;;;4.27;3.73;;;;;;;16.96;57.52;100290.66;2302689;69;20307;-80
2021/10/08 16:05:32;;;;;;;4.46;3.99;;;;;;;16.79;57.49;100294.41;2297471;69;20421;-79
2021/10/08 16:09:22;;;;;;;3.67;3.38;;;;;;;16.60;58.14;100298.16;2306409;69;20295;-79
2021/10/08 16:13:05;;;;;;;5.31;4.14;;;;;;;16.42;58.15;100295.78;2302695;69;20191;-80
2021/10/08 16:16:26;;;;;;;4.61;4.21;;;;;;;16.26;58.73;100293.38;2297233;69;20264;-80
2021/10/08 16:19:47;;;;;;;5.35;3.94;;;;;;;16.13;59.39;100297.03;2307029;69;20245;-80
2021/10/08 16:23:03;;;;;;;6.32;4.40;;;;;;;15.99;59.84;100299.84;2307817;69;20190;-80
2021/10/08 16:26:26;;;;;;;5.25;3.88;;;;;;;15.88;60.16;100312.19;2303561;69;20722;-79
2021/10/08 16:29:47;;;;;;;5.31;4.22;;;;;;;15.78;59.86;100301.81;2307112;69;20251;-80
2021/10/08 16:33:14;;;;;;;5.28;3.97;;;;;;;15.67;60.56;100309.78;2300373;69;20670;-80
2021/10/08 16:36:43;;;;;;;4.75;4.31;;;;;;;15.57;60.92;100311.59;2301917;69;20289;-80
2021/10/08 16:39:47;;;;;;;5.31;4.00;;;;;;;15.42;61.55;100312.59;2304049;69;20607;-80
2021/10/08 16:42:49;;;;;;;4.32;4.03;;;;;;;15.32;62.07;100310.97;2303244;69;20693;-80
2021/10/08 16:45:52;;;;;;;5.19;4.44;;;;;;;15.20;62.26;100312.81;2301414;66;23426;-80
2021/10/08 16:48:55;;;;;;;4.72;4.32;;;;;;;15.10;62.93;100312.03;2315159;69;20908;-80
2021/10/08 16:51:57;;;;;;;5.01;4.59;;;;;;;15.01;63.13;100317.31;2316051;69;20834;-80
2021/10/08 16:55:02;;;;;;;4.49;4.11;;;;;;;14.89;63.36;100309.56;2317633;69;20217;-80
2021/10/08 16:58:04;;;;;;;4.72;4.32;;;;;;;14.80;63.95;100313.13;2311503;69;20256;-80
2021/10/08 17:01:07;;;;;;;7.35;4.71;;;;;;;14.75;64.26;100322.75;2313712;67;26503;-80
2021/10/08 17:04:10;;;;;;;4.88;4.47;;;;;;;14.68;64.47;100321.03;2315594;69;20186;-80
2021/10/08 17:07:14;;;;;;;5.11;4.68;;;;;;;14.58;64.75;100322.84;2316199;69;20205;-80
2021/10/08 17:10:17;;;;;;;4.97;4.46;;;;;;;14.54;65.03;100320.25;2316884;69;20144;-80
2021/10/08 17:13:19;;;;;;;6.39;5.10;;;;;;;14.46;65.42;100321.16;2315447;69;20279;-80
2021/10/08 17:16:22;;;;;;;5.41;4.91;;;;;;;14.40;65.64;100323.78;2320618;68;20221;-78
2021/10/08 17:19:25;;;;;;;6.43;5.78;;;;;;;14.32;66.10;100320.31;2330951;68;20183;-80
2021/10/08 17:22:28;;;;;;;5.45;4.96;;;;;;;14.23;66.30;100328.22;2330013;68;20184;-80
2021/10/08 17:25:34;;;;;;;5.26;4.80;;;;;;;14.11;66.45;100323.91;2331769;68;20139;-80
2021/10/08 17:35:01;;;;;;;5.41;4.91;;;;;;;13.94;67.39;100324.84;2330465;68;20147;-81
2021/10/08 17:38:04;;;;;;;6.15;5.55;;;;;;;13.83;67.82;100330.09;2334654;68;20196;-80
2021/10/08 17:41:07;;;;;;;6.14;4.76;;;;;;;13.77;68.15;100325.75;2330625;68;20147;-80
2021/10/08 17:44:10;;;;;;;6.15;5.01;;;;;;;13.69;68.14;100327.53;2329100;68;20208;-80
2021/10/08 17:47:14;;;;;;;5.35;4.85;;;;;;;13.62;68.46;100333.59;2330950;68;20184;-79
2021/10/08 17:50:32;;;;;;;5.26;4.75;;;;;;;13.56;68.59;100331.88;2327439;68;20167;-79
2021/10/08 17:53:50;;;;;;;4.79;4.43;;;;;;;13.48;69.33;100338.88;2329049;68;20820;-79
2021/10/08 17:56:54;;;;;;;5.94;4.91;;;;;;;13.30;71.32;100333.66;2320703;68;20198;-80
2021/10/08 18:00:04;;;;;;;5.70;5.12;;;;;;;13.12;72.04;100338.84;2328782;68;20169;-80
2021/10/08 18:03:19;;;;;;;6.53;4.36;;;;;;;13.01;72.23;100337.09;2328527;68;20268;-79
2021/10/08 18:06:24;;;;;;;5.09;4.64;;;;;;;12.84;73.47;100333.59;2327495;68;20146;-79
2021/10/08 18:09:31;;;;;;;5.57;4.69;;;;;;;12.69;74.16;100337.03;2327692;68;20183;-79
2021/10/08 18:12:36;;;;;;;7.16;4.45;;;;;;;12.56;74.91;100343.06;2327146;68;20184;-79
2021/10/08 18:15:39;;;;;;;6.45;5.00;;;;;;;12.35;75.84;100341.25;2330116;66;20609;-79
2021/10/08 18:18:46;;;;;;;8.36;5.90;;;;;;;12.29;76.38;100343.00;2326267;68;20143;-78
2021/10/08 18:21:52;;;;;;;6.59;5.40;;;;;;;12.24;76.40;100345.56;2313527;68;20155;-79
2021/10/08 18:24:56;;;;;;;6.56;5.34;;;;;;;12.20;76.57;100348.13;2327721;68;20190;-79
2021/10/08 18:27:59;;;;;;;7.89;6.06;;;;;;;12.29;75.80;100353.41;2327138;68;20135;-79
2021/10/08 18:31:04;;;;;;;8.16;5.55;;;;;;;12.32;75.34;100349.06;2314690;68;782159;-79
2021/10/08 18:34:28;;;;;;;6.22;5.63;;;;;;;12.34;75.02;100354.28;2327607;68;20172;-80
2021/10/08 18:37:31;;;;;;;6.10;5.53;;;;;;;12.38;74.68;100353.41;2326158;68;20230;-79
2021/10/08 18:40:35;;;;;;;6.68;5.96;;;;;;;12.42;74.67;100352.59;2321517;68;20776;-78
2021/10/08 18:43:38;;;;;;;7.15;5.39;;;;;;;12.42;74.70;100351.72;2322536;68;20929;-78
2021/10/08 18:46:51;;;;;;;6.86;6.16;;;;;;;12.44;74.57;100344.78;2327146;68;20171;-80
2021/10/08 18:50:01;;;;;;;5.89;5.39;;;;;;;12.44;74.62;100348.25;2313875;68;20147;-79
2021/10/08 18:53:05;;;;;;;5.36;4.85;;;;;;;12.43;74.57;100340.44;2327744;68;20252;-80
2021/10/08 18:56:11;;;;;;;7.95;5.75;;;;;;;12.39;74.59;100331.75;2320921;68;20184;-79
2021/10/08 18:59:15;;;;;;;6.51;5.09;;;;;;;12.34;74.83;100342.13;2318305;68;21137;-79
2021/10/08 19:02:32;;;;;;;6.47;5.14;;;;;;;12.31;74.90;100336.91;2328658;68;20155;-79
2021/10/08 19:05:38;;;;;;;5.61;5.09;;;;;;;12.27;75.15;100337.78;2318233;68;20580;-80
2021/10/08 19:08:43;;;;;;;5.46;5.03;;;;;;;12.24;75.22;100345.56;2313509;68;20608;-78
2021/10/08 19:11:54;;;;;;;5.34;4.84;;;;;;;12.12;76.64;100345.50;2325430;68;20346;-78
2021/10/08 19:15:09;;;;;;;5.75;5.25;;;;;;;11.96;77.95;100344.56;2326607;68;20177;-78
2021/10/08 19:18:36;;;;;;;7.00;5.41;;;;;;;11.77;78.86;100334.88;2325896;65;28277;-78
2021/10/08 19:21:39;;;;;;;6.86;5.84;;;;;;;11.65;78.92;100335.66;2324092;68;20681;-78
2021/10/08 19:24:42;;;;;;;7.31;6.53;;;;;;;11.67;78.85;100327.88;2323281;68;20159;-78
2021/10/08 19:27:45;;;;;;;8.26;7.19;;;;;;;11.66;78.95;100336.53;2323952;68;20179;-78
2021/10/08 19:30:48;;;;;;;9.21;6.78;;;;;;;11.71;78.56;100335.72;2322163;65;34466;-79
2021/10/08 19:33:52;;;;;;;7.18;6.51;;;;;;;11.77;78.63;100330.56;2325987;68;20154;-80
2021/10/08 19:36:59;;;;;;;7.65;6.40;;;;;;;11.83;78.17;100337.53;2327453;68;20224;-79
2021/10/08 19:40:04;;;;;;;6.68;5.96;;;;;;;11.85;78.02;100330.66;2321628;68;20188;-78
2021/10/08 19:43:13;;;;;;;8.55;6.18;;;;;;;11.71;78.63;100327.06;2325069;68;20252;-79
2021/10/08 19:46:35;;;;;;;7.69;6.89;;;;;;;11.67;78.91;100326.16;2317835;68;20147;-79
2021/10/08 19:49:38;;;;;;;6.96;6.26;;;;;;;11.64;79.36;100326.13;2328058;68;20990;-80
2021/10/08 19:52:41;;;;;;;8.38;6.59;;;;;;;11.62;79.24;100325.25;2327635;68;20365;-79
2021/10/08 19:55:45;;;;;;;7.85;6.56;;;;;;;11.57;79.48;100319.16;2321072;68;20143;-80
2021/10/08 19:58:47;;;;;;;7.26;6.54;;;;;;;11.63;79.37;100326.13;2319530;68;20171;-80
2021/10/08 20:01:51;;;;;;;8.21;7.15;;;;;;;11.68;79.63;100321.84;2326549;65;20777;-79
2021/10/08 20:05:03;;;;;;;8.25;6.90;;;;;;;11.72;79.44;100329.66;2330992;68;20158;-80
2021/10/08 20:14:48;;;;;;;8.99;7.72;;;;;;;11.82;78.94;100329.72;2331343;68;20150;-80
2021/10/08 20:17:51;;;;;;;8.94;7.86;;;;;;;11.79;78.76;100326.25;2329955;66;24976;-80
2021/10/08 20:20:54;;;;;;;10.50;7.70;;;;;;;11.80;78.84;100327.13;2331051;68;20487;-80
2021/10/08 20:23:57;;;;;;;10.75;8.65;;;;;;;11.80;78.69;100334.94;2330108;68;20263;-80
2021/10/08 20:27:01;;;;;;;8.55;7.56;;;;;;;11.79;78.50;100333.19;2330356;68;20169;-81
2021/10/08 20:30:04;;;;;;;8.43;7.54;;;;;;;11.79;78.40;100328.00;2331908;68;20604;-80
2021/10/08 20:33:07;;;;;;;8.43;7.56;;;;;;;11.76;78.54;100321.00;2329250;65;22909;-80
2021/10/08 20:36:10;;;;;;;8.14;7.30;;;;;;;11.70;78.75;100326.19;2334113;68;20165;-80
2021/10/08 20:39:12;;;;;;;8.36;6.85;;;;;;;11.65;78.15;100322.66;2332270;68;20187;-81
2021/10/08 20:42:15;;;;;;;8.59;7.64;;;;;;;11.56;78.42;100320.03;2334059;68;20158;-80
2021/10/08 20:45:20;;;;;;;9.00;7.24;;;;;;;11.46;79.00;100319.06;2331278;68;20179;-80
2021/10/08 20:48:23;;;;;;;9.74;8.73;;;;;;;11.33;79.78;100325.06;2332005;65;26877;-80
2021/10/08 20:51:26;;;;;;;10.35;7.78;;;;;;;11.19;80.32;100319.75;2331151;68;20211;-80
2021/10/08 20:54:28;;;;;;;8.90;7.79;;;;;;;11.14;80.26;100321.44;2331402;68;20178;-80
2021/10/08 20:57:31;;;;;;;8.96;8.09;;;;;;;11.15;80.33;100322.31;2333167;68;20147;-80
2021/10/08 21:00:37;;;;;;;9.61;8.16;;;;;;;11.15;80.38;100320.59;2331230;65;23307;-80
2021/10/08 21:03:40;;;;;;;8.63;7.45;;;;;;;11.16;80.58;100313.66;2331262;68;20159;-80
2021/10/08 21:06:44;;;;;;;13.52;8.56;;;;;;;11.15;80.80;100315.41;2333680;68;20211;-80
2021/10/08 21:09:48;;;;;;;12.06;8.51;;;;;;;11.15;81.27;100306.72;2331952;68;20159;-80
2021/10/08 21:12:51;;;;;;;9.99;8.64;;;;;;;11.15;81.50;100307.59;2332245;68;20139;-80
2021/10/08 21:15:54;;;;;;;10.39;7.90;;;;;;;11.12;81.51;100310.16;2330213;66;25097;-80
2021/10/08 21:18:57;;;;;;;9.00;8.07;;;;;;;11.14;81.72;100308.47;2325429;68;20576;-76
2021/10/08 21:22:01;;;;;;;9.56;8.54;;;;;;;11.16;81.99;100303.28;2325012;68;20139;-76
2021/10/08 21:25:06;;;;;;;9.49;8.49;;;;;;;11.15;82.01;100319.72;2324755;68;20769;-76
2021/10/08 21:28:12;;;;;;;11.59;8.69;;;;;;;11.17;81.78;100318.00;2325715;68;20295;-76
2021/10/08 21:31:15;;;;;;;11.09;9.09;;;;;;;11.18;81.78;100309.34;2326395;65;30556;-76
2021/10/08 21:34:20;;;;;;;10.74;8.89;;;;;;;11.24;82.28;100309.38;2325867;68;20567;-76
2021/10/08 21:44:03;;;;;;;13.61;10.30;;;;;;;11.25;81.40;100305.06;2321709;68;20169;-76
2021/10/08 21:47:06;;;;;;;12.38;9.94;;;;;;;11.23;81.80;100310.25;2322615;65;49594;-76
2021/10/08 21:50:11;;;;;;;11.75;9.15;;;;;;;11.25;82.17;100303.31;2326971;68;20182;-76
2021/10/08 21:53:14;;;;;;;17.29;10.13;;;;;;;11.28;82.51;100299.88;2325124;68;20154;-77
2021/10/08 21:56:16;;;;;;;13.16;10.05;;;;;;;11.32;82.70;100301.66;2326916;68;20223;-76
2021/10/08 21:59:19;;;;;;;11.59;10.04;;;;;;;11.34;82.45;100299.94;2326456;68;20158;-77
2021/10/08 22:02:22;;;;;;;13.52;10.35;;;;;;;11.34;82.19;100305.13;2322628;66;20186;-77
2021/10/08 22:05:24;;;;;;;14.21;10.00;;;;;;;11.33;81.87;100303.41;2326701;68;21041;-76
2021/10/08 22:08:27;;;;;;;12.34;9.81;;;;;;;11.32;81.99;100307.72;2329392;68;20154;-77
2021/10/08 22:11:32;;;;;;;12.86;10.39;;;;;;;11.30;81.97;100304.22;2325170;68;20200;-76
2021/10/08 22:14:35;;;;;;;13.05;10.75;;;;;;;11.29;82.08;100309.41;2326220;68;20146;-76
2021/10/08 22:17:37;;;;;;;16.36;11.36;;;;;;;11.28;82.41;100303.34;2323472;65;21929;-76
2021/10/08 22:20:40;;;;;;;12.60;10.73;;;;;;;11.25;82.57;100308.53;2324907;68;20433;-77
2021/10/08 22:33:57;;;;;;;12.74;10.76;;;;;;;11.16;82.49;100304.13;2307031;69;20181;-80
2021/10/08 22:37:00;;;;;;;14.70;10.66;;;;;;;11.16;82.83;100303.28;2302786;69;20168;-80
2021/10/08 22:40:05;;;;;;;13.16;10.23;;;;;;;11.16;82.74;100295.47;2292891;69;20268;-79
2021/10/08 22:43:08;;;;;;;14.73;11.19;;;;;;;11.14;82.65;100298.06;2294273;69;20165;-80
2021/10/08 22:46:13;;;;;;;15.77;11.49;;;;;;;11.16;83.10;100298.94;2295782;69;20246;-80
2021/10/08 22:49:17;;;;;;;13.60;10.57;;;;;;;11.16;82.95;100283.34;2297062;69;20153;-80
2021/10/08 22:52:20;;;;;;;13.77;10.74;;;;;;;11.15;82.56;100285.94;2308484;69;20218;-79
2021/10/08 22:55:24;;;;;;;13.06;10.63;;;;;;;11.14;82.76;100282.47;2303326;69;20182;-80
2021/10/08 22:58:29;;;;;;;13.02;10.40;;;;;;;11.13;82.67;100278.13;2302806;69;20185;-80
2021/10/08 23:01:32;;;;;;;15.41;10.55;;;;;;;11.10;82.50;100280.69;2303094;69;20685;-80
2021/10/08 23:04:35;;;;;;;14.24;10.52;;;;;;;11.07;82.29;100280.66;2293532;69;20388;-79
2021/10/08 23:07:48;;;;;;;14.54;10.56;;;;;;;11.03;82.24;100272.84;2311320;68;20219;-80
2021/10/08 23:14:08;;;;;;;13.41;10.39;;;;;;;10.96;82.97;100276.25;2324641;68;20513;-80
2021/10/08 23:17:21;;;;;;;17.20;12.27;;;;;;;10.93;82.80;100276.19;2319338;68;20528;-80
2021/10/08 23:20:24;;;;;;;16.27;11.56;;;;;;;10.91;82.92;100271.00;2318982;68;20159;-80
2021/10/08 23:23:26;;;;;;;15.16;11.49;;;;;;;10.92;83.07;100274.47;2315992;68;20223;-80
2021/10/08 23:26:29;;;;;;;13.77;11.06;;;;;;;10.91;82.92;100276.19;2324846;68;20562;-80
2021/10/08 23:29:32;;;;;;;16.77;11.57;;;;;;;10.89;82.60;100270.13;2319702;68;20143;-80
2021/10/08 23:35:52;;;;;;;13.18;11.01;;;;;;;10.87;82.79;100272.72;2337746;68;20674;-79
2021/10/08 23:38:55;;;;;;;15.21;10.74;;;;;;;10.86;82.78;100275.28;2335558;68;20146;-79
2021/10/08 23:41:58;;;;;;;17.10;10.90;;;;;;;10.85;82.71;100284.81;2337794;68;20199;-80
2021/10/08 23:45:01;;;;;;;16.90;10.91;;;;;;;10.81;82.51;100270.06;2333925;68;20167;-79
2021/10/08 23:48:04;;;;;;;15.65;11.15;;;;;;;10.79;82.53;100276.97;2333223;66;24765;-79